Janesville, WI

5:31 PM CST on November 26, 2014 (GMT -0600)
Read Road | Change Station
CLOSE
Current Station
Personal Weather Station
Location: Janesville, WI
Elevation: 851 ft
Nearby Weather Stations

Elev 851 ft 42.61 °N, 88.99 °W | Updated 1 minute ago

Overcast
Overcast
20.8 °F
Feels Like 14 °F
N
5.0
Wind Variable Wind from NNE
Gusts 5.0 mph

Today
High -- | Low -- °F
--% Chance of Precip.
Yesterday
High -- | Low -- °F
Precip. -- in
7:01 AM 4:25 PM
Waxing Crescent, 23% visible
Pressure 30.14 in
Visibility 4.0 miles
Clouds Overcast 1900 ft
Windchill 14 °F
Dew Point 19 °F
Humidity 93%
Rainfall 0.00 in
Snow Depth Not available.
UV 10.7 out of 12
Pollen .10 out of 12
Air Quality Not available.
Flu Activity Not available.
METAR KJVL 262245Z 02007KT 4SM BR OVC019 M04/M06 A3014

More Conditions Fewer Conditions

Pressure 30.14 in
Visibility 4.0 miles
Clouds Overcast 1900 ft
Windchill 14 °F
Dew Point 19 °F
Humidity 93%
Rainfall 0.00 in
Snow Depth Not available.
UV 10.7 out of 12
Pollen .10 out of 12
Air Quality Not available.
Flu Activity Not available.
METAR KJVL 262245Z 02007KT 4SM BR OVC019 M04/M06 A3014

More Conditions Fewer Conditions

10-Day Weather Forecast

Almanac

Astronomy

Nov. 26, 2014 Rise Set
Actual Time
Civil Twilight
Nautical Twilight
Astronomical Twilight
Moon
Length of Visible Light
Length of Day
Tomorrow will be .
, % of the Moon is Illuminated

Today's Extremes

State Highs State Lows

Community

WunderPhotos

Upload Photos

1,773,919 photos uploaded!

WunderBlogs® & News

Nearby

Air Quality

  Air Quality AQ Index Pollutant
Not available.

Snow Depth

Station Depth Elevation

Earthquake Activity

City Distance Mag. Time & Date
Minimum magnitude displayed is 2.5.

Coastal Water Temperatures

Place Temperature

Nearby Weather Stations